createdAt,value
2022-08-11T09:37:55.438Z,96871.25
2022-08-11T09:40:31.023Z,96857.53
2022-08-11T09:43:17.347Z,96860.78
2022-08-11T09:45:51.642Z,96854.38
2022-08-11T09:48:20.256Z,96858.88
2022-08-11T09:50:50.959Z,96857.38
2022-08-11T09:53:37.724Z,96848.59
2022-08-11T09:56:30.434Z,96855.19
2022-08-11T09:58:59.373Z,96863.75
2022-08-11T10:01:31.366Z,96866.47
2022-08-11T10:04:02.824Z,96852.56
2022-08-11T10:06:53.991Z,96853.78
2022-08-11T10:09:25.471Z,96861.75
2022-08-11T10:11:58.121Z,96858.09
2022-08-11T10:14:45.115Z,96842.34
2022-08-11T10:17:14.988Z,96848.59
2022-08-11T10:19:43.892Z,96862.59
2022-08-11T10:22:30.168Z,96853.56
2022-08-11T10:25:20.292Z,96831.25
2022-08-11T10:28:32.776Z,96840.19
2022-08-11T10:30:57.901Z,96835.31
2022-08-11T10:33:58.966Z,96838.84
2022-08-11T10:36:28.077Z,96833.88
2022-08-11T10:38:57.197Z,96828.94
2022-08-11T10:42:06.836Z,96830.94
2022-08-11T10:44:34.991Z,96834.75
2022-08-11T10:47:20.693Z,96829.28
2022-08-11T10:50:09.537Z,96805.28
2022-08-11T10:52:55.953Z,96829.88
2022-08-11T10:55:42.176Z,96822.13
2022-08-11T10:58:30.157Z,96824.34
2022-08-11T11:00:59.021Z,96810.69
2022-08-11T11:03:28.255Z,96815.03
2022-08-11T11:06:13.990Z,96815.94
2022-08-11T11:08:58.768Z,96804.84
2022-08-11T11:11:46.297Z,96803.31
2022-08-11T11:14:35.896Z,96799.44
2022-08-11T11:17:32.354Z,96800.22
2022-08-11T11:20:01.441Z,96795.78
2022-08-11T11:22:39.875Z,96796.69
2022-08-11T11:25:17.736Z,96799.94
2022-08-11T11:27:55.595Z,96801.03
2022-08-11T11:30:29.376Z,96739.97
2022-08-11T11:33:04.439Z,96789.47
2022-08-11T11:35:39.931Z,96786.41
2022-08-11T11:38:13.736Z,96784.22
2022-08-11T11:40:42.878Z,96790.94
2022-08-11T11:43:11.478Z,96776.84
2022-08-11T11:45:42.441Z,96779.13
2022-08-11T11:48:10.588Z,96786.31
2022-08-11T11:50:39.184Z,96771.34
2022-08-11T11:53:09.211Z,96778.31
2022-08-11T11:55:37.721Z,96780.81
2022-08-11T11:58:23.724Z,96782.84
2022-08-11T12:01:11.404Z,96773.53
2022-08-11T12:03:41.243Z,96771.28
2022-08-11T12:06:12.191Z,96758.72
2022-08-11T12:08:40.253Z,96762.94
2022-08-11T12:11:29.201Z,96753.00
2022-08-11T12:13:58.902Z,96764.13
2022-08-11T12:16:33.349Z,96754.72
2022-08-11T12:19:05.217Z,96759.22
2022-08-11T12:21:33.858Z,96757.13
2022-08-11T12:24:20.163Z,96760.53
2022-08-11T12:27:16.391Z,96750.91
2022-08-11T12:29:51.387Z,96745.34
2022-08-11T12:32:30.429Z,96749.25
2022-08-11T12:34:58.591Z,96746.06
2022-08-11T12:37:31.616Z,96747.47
2022-08-11T12:40:43.008Z,96744.38
2022-08-11T12:43:37.964Z,96745.78
2022-08-11T12:46:09.323Z,96741.75
2022-08-11T12:49:02.877Z,96745.28
2022-08-11T12:52:10.974Z,96651.66
2022-08-11T12:54:49.710Z,96724.94
2022-08-11T12:57:38.204Z,96709.34
2022-08-11T13:00:25.895Z,96721.19
2022-08-11T13:03:12.756Z,96724.81
2022-08-11T13:05:45.140Z,96723.56
2022-08-11T13:08:15.248Z,96723.59
2022-08-11T13:11:01.800Z,96734.00
2022-08-11T13:13:55.600Z,96724.00
2022-08-11T13:16:20.747Z,96719.91
2022-08-11T13:18:49.001Z,96716.38
2022-08-11T13:21:20.317Z,96703.16
2022-08-11T13:24:01.692Z,96721.72
2022-08-11T13:26:37.496Z,96728.50
2022-08-11T13:29:17.761Z,96726.16
2022-08-11T13:31:46.479Z,96716.78
2022-08-11T13:34:14.732Z,96710.56
2022-08-11T13:36:44.562Z,96718.19
2022-08-11T13:39:13.224Z,96724.72
2022-08-11T13:41:44.155Z,96716.47
2022-08-11T13:44:15.815Z,96715.75
2022-08-11T13:46:46.736Z,96709.59
2022-08-11T13:49:17.572Z,96700.66
2022-08-11T13:51:47.034Z,96715.09
2022-08-11T13:54:18.895Z,96672.53
2022-08-11T13:56:49.276Z,96711.75
2022-08-11T13:59:20.257Z,96710.59
2022-08-11T14:02:19.727Z,96711.78
2022-08-11T14:04:44.730Z,96713.69
2022-08-11T14:07:15.729Z,96704.97
2022-08-11T14:09:44.983Z,96694.41
2022-08-11T14:12:37.166Z,96690.22
2022-08-11T14:15:08.975Z,96681.63
2022-08-11T14:17:48.402Z,96688.28
2022-08-11T14:20:38.524Z,96683.38
2022-08-11T14:23:10.946Z,96688.69
2022-08-11T14:26:02.449Z,96679.47
2022-08-11T14:28:37.860Z,96696.22
2022-08-11T14:31:10.353Z,96686.22
2022-08-11T14:33:59.915Z,96680.34
2022-08-11T14:36:28.029Z,96694.75
2022-08-11T14:38:58.060Z,96619.81
2022-08-11T14:42:11.941Z,96686.91
2022-08-11T14:44:50.765Z,96681.84
2022-08-11T14:47:24.241Z,96685.19
2022-08-11T14:50:09.431Z,96687.09
2022-08-11T14:52:41.213Z,96685.75
2022-08-11T14:55:29.490Z,96681.50
2022-08-11T14:57:57.990Z,96687.16
2022-08-11T15:00:26.599Z,96688.34
2022-08-11T15:03:12.923Z,96672.06
2022-08-11T15:05:57.177Z,96681.78
2022-08-11T15:08:48.694Z,96685.56
2022-08-11T15:11:38.958Z,96679.53
2022-08-11T15:14:08.838Z,96682.59
2022-08-11T15:16:55.263Z,96666.38
2022-08-11T15:19:23.406Z,96669.69
2022-08-11T15:22:09.225Z,96658.13
2022-08-11T15:24:37.655Z,96653.75
2022-08-11T15:27:29.565Z,96655.56
2022-08-11T15:30:29.892Z,96659.06
2022-08-11T15:33:21.913Z,96656.28
2022-08-11T15:36:07.923Z,96658.44
2022-08-11T15:38:37.103Z,96660.69
2022-08-11T15:41:24.009Z,96658.97
2022-08-11T15:44:13.505Z,96660.59
2022-08-11T15:46:43.739Z,96642.75
2022-08-11T15:49:13.757Z,96649.94
2022-08-11T15:51:52.285Z,96643.66
2022-08-11T15:54:23.406Z,96641.66
2022-08-11T15:56:55.135Z,96629.91
2022-08-11T15:59:43.795Z,96638.25
2022-08-11T16:02:32.782Z,96634.63
2022-08-11T16:05:02.277Z,96609.47
2022-08-11T16:07:34.414Z,96638.09
2022-08-11T16:10:14.009Z,96645.53
2022-08-11T16:13:21.410Z,96642.84
2022-08-11T16:16:11.413Z,96582.78
2022-08-11T16:18:44.449Z,96641.88
2022-08-11T16:21:26.211Z,96647.16
2022-08-11T16:24:04.897Z,96643.19
2022-08-11T16:27:08.057Z,96642.72
2022-08-11T16:29:23.101Z,96630.25
2022-08-11T16:32:08.289Z,96634.94
2022-08-11T16:34:54.597Z,96638.13
2022-08-11T16:37:41.921Z,96643.84
2022-08-11T16:40:11.825Z,96643.44
2022-08-11T16:43:02.408Z,96634.53
2022-08-11T16:45:58.186Z,96636.16
2022-08-11T16:48:35.112Z,96627.09
2022-08-11T16:51:05.497Z,96629.03
2022-08-11T16:54:00.028Z,96618.16
2022-08-11T16:56:24.206Z,96624.69
2022-08-11T16:59:12.882Z,96622.31
2022-08-11T17:01:41.206Z,96609.19
2022-08-11T17:04:34.073Z,96627.84
2022-08-11T17:07:40.300Z,96628.00
2022-08-11T17:10:53.230Z,96626.06
2022-08-11T17:13:27.482Z,96627.56
2022-08-11T17:16:12.221Z,96629.69
2022-08-11T17:18:45.613Z,96572.28
2022-08-11T17:21:17.612Z,96627.59
2022-08-11T17:23:49.927Z,96627.66
2022-08-11T17:26:20.274Z,96632.66
2022-08-11T17:28:51.989Z,96638.72
2022-08-11T17:31:39.826Z,96628.78
2022-08-11T17:34:26.163Z,96633.19
2022-08-11T17:36:56.580Z,96633.53
2022-08-11T17:39:29.289Z,96627.66
2022-08-11T17:42:15.402Z,96638.06
2022-08-11T17:45:01.540Z,96650.13
2022-08-11T17:47:48.364Z,96645.88
2022-08-11T17:50:18.253Z,96649.78
2022-08-11T17:53:06.546Z,96646.22
2022-08-11T17:55:53.588Z,96651.25
2022-08-11T17:58:39.582Z,96649.78
2022-08-11T18:01:09.100Z,96642.59
2022-08-11T18:03:40.006Z,96637.22
2022-08-11T18:06:12.726Z,96654.28
2022-08-11T18:09:03.519Z,96656.53
2022-08-11T18:12:07.044Z,96652.56
2022-08-11T18:14:56.031Z,96654.22
2022-08-11T18:17:41.522Z,96655.66
2022-08-11T18:20:27.955Z,96650.34
2022-08-11T18:23:14.702Z,96668.59
2022-08-11T18:26:07.384Z,96666.47
2022-08-11T18:28:58.494Z,96671.25
2022-08-11T18:31:44.298Z,96667.47
2022-08-11T18:34:32.929Z,96666.41
2022-08-11T18:37:23.878Z,96674.66
2022-08-11T18:40:17.063Z,96682.59
2022-08-11T18:43:06.014Z,96676.63
2022-08-11T18:45:57.490Z,96665.34
2022-08-11T18:48:54.691Z,96678.31
2022-08-11T18:51:40.477Z,96676.41
2022-08-11T18:54:28.317Z,96684.97
2022-08-11T18:57:15.741Z,96690.16
2022-08-11T19:00:03.385Z,96692.22
2022-08-11T19:02:50.195Z,96698.56
2022-08-11T19:06:31.816Z,96691.81
2022-08-11T19:08:47.273Z,96698.34
2022-08-11T19:11:33.055Z,96699.22
2022-08-11T19:14:19.736Z,96699.38
2022-08-11T19:17:08.044Z,96693.97
2022-08-11T19:19:55.267Z,96686.88
2022-08-11T19:22:41.383Z,96693.44
2022-08-11T19:25:27.645Z,96694.16
2022-08-11T19:28:15.968Z,96690.78
2022-08-11T19:31:01.542Z,96685.19
2022-08-11T19:34:00.161Z,96692.81
2022-08-11T19:36:55.381Z,96671.81
2022-08-11T19:39:41.242Z,96688.63
2022-08-11T19:42:26.993Z,96655.34
2022-08-11T19:45:13.228Z,96671.88
2022-08-11T19:48:20.747Z,96691.88
2022-08-11T19:51:06.058Z,96692.59
2022-08-11T19:53:52.007Z,96679.53
2022-08-11T19:56:37.746Z,96680.72
2022-08-11T19:59:23.647Z,96661.88
2022-08-11T20:02:13.514Z,96676.16
2022-08-11T20:05:00.409Z,96683.50
2022-08-11T20:07:47.742Z,96686.09
2022-08-11T20:10:35.997Z,96694.84
2022-08-11T20:13:22.227Z,96681.28
2022-08-11T20:16:07.955Z,96684.34
2022-08-11T20:18:54.050Z,96688.88
2022-08-11T20:21:40.492Z,96676.38
2022-08-11T20:24:27.777Z,96692.84
2022-08-11T20:27:18.887Z,96677.69
2022-08-11T20:30:10.457Z,96687.03
2022-08-11T20:32:56.221Z,96682.41
2022-08-11T20:35:42.624Z,96682.81
2022-08-11T20:38:28.393Z,96689.19
2022-08-11T20:41:16.204Z,96692.47
2022-08-11T20:44:05.765Z,96686.53
2022-08-11T20:46:55.219Z,96698.00
2022-08-11T20:49:50.524Z,96693.28
2022-08-11T20:52:43.217Z,96703.69
2022-08-11T20:55:51.749Z,96676.56
2022-08-11T21:01:46.724Z,96700.22
2022-08-11T21:04:32.760Z,96707.72
2022-08-11T21:07:24.755Z,96698.59
2022-08-11T21:10:23.735Z,96708.88
2022-08-11T21:13:25.035Z,96698.72
2022-08-11T21:16:25.679Z,96705.47
2022-08-11T21:19:16.046Z,96705.81
2022-08-11T21:22:03.474Z,96697.19
2022-08-11T21:24:50.220Z,96707.94
2022-08-11T21:27:36.941Z,96706.19
2022-08-11T21:30:23.293Z,96689.13
2022-08-11T21:33:10.437Z,96705.47
2022-08-11T21:35:56.213Z,96699.75
2022-08-11T21:38:41.975Z,96709.81
2022-08-11T21:41:29.255Z,96712.00
2022-08-11T21:44:16.115Z,96709.06
2022-08-11T21:47:02.502Z,96711.19
2022-08-11T21:49:50.277Z,96702.41
2022-08-11T21:52:36.246Z,96712.47
2022-08-11T21:55:21.966Z,96711.41
2022-08-11T21:58:07.628Z,96714.88
2022-08-11T22:00:53.497Z,96696.75
2022-08-11T22:03:50.072Z,96714.41
2022-08-11T22:06:37.762Z,96714.41
2022-08-11T22:09:22.919Z,96712.53
2022-08-11T22:12:34.431Z,96714.41
2022-08-11T22:15:14.096Z,96699.97
2022-08-11T22:17:59.280Z,96714.66
2022-08-11T22:20:46.057Z,96712.31
2022-08-11T22:23:35.271Z,96686.75
2022-08-11T22:26:22.786Z,96711.41
2022-08-11T22:29:07.912Z,96714.81
2022-08-11T22:31:54.792Z,96684.03
2022-08-11T22:34:49.151Z,96719.13
2022-08-11T22:37:38.963Z,96725.38
2022-08-11T22:40:27.648Z,96707.47
2022-08-11T22:43:12.999Z,96717.63
2022-08-11T22:45:58.786Z,96720.59
2022-08-11T22:48:45.116Z,96723.59
2022-08-11T22:51:32.307Z,96717.06
2022-08-11T22:54:19.143Z,96724.53
2022-08-11T22:57:07.087Z,96707.78
2022-08-11T22:59:54.757Z,96707.31
2022-08-11T23:02:40.611Z,96709.06
2022-08-11T23:05:27.958Z,96715.13
2022-08-11T23:08:14.734Z,96707.66
2022-08-11T23:11:00.491Z,96702.41
2022-08-11T23:13:47.756Z,96706.13
2022-08-11T23:16:33.924Z,96694.09
2022-08-11T23:20:08.989Z,96700.19
2022-08-11T23:22:43.841Z,96689.66
2022-08-11T23:25:30.844Z,96695.53
2022-08-11T23:28:17.565Z,96658.69
2022-08-11T23:31:04.923Z,96650.22
2022-08-11T23:33:53.200Z,96685.19
2022-08-11T23:36:47.771Z,96684.63
2022-08-11T23:39:33.904Z,96678.28
2022-08-11T23:42:19.656Z,96639.09
2022-08-11T23:45:09.424Z,96658.97
2022-08-11T23:47:57.151Z,96673.34
2022-08-11T23:50:43.366Z,96671.41
2022-08-11T23:53:29.278Z,96680.56
2022-08-11T23:56:15.137Z,96675.50
2022-08-11T23:59:01.000Z,96672.56
